createdAt,value
2023-02-22T00:00:37.882Z,58.70
2023-02-22T00:03:04.354Z,58.45
2023-02-22T00:05:30.727Z,58.72
2023-02-22T00:07:57.290Z,58.46
2023-02-22T00:10:23.658Z,58.67
2023-02-22T00:12:50.067Z,58.50
2023-02-22T00:15:16.394Z,58.52
2023-02-22T00:17:42.753Z,58.72
2023-02-22T00:20:09.260Z,58.45
2023-02-22T00:22:35.645Z,58.56
2023-02-22T00:25:02.047Z,58.38
2023-02-22T00:27:28.409Z,58.44
2023-02-22T00:29:55.025Z,58.69
2023-02-22T00:32:21.501Z,58.31
2023-02-22T00:34:47.923Z,58.35
2023-02-22T00:37:14.438Z,58.20
2023-02-22T00:39:40.736Z,58.50
2023-02-22T00:42:07.022Z,58.21
2023-02-22T00:44:33.540Z,58.29
2023-02-22T00:47:00.039Z,58.46
2023-02-22T00:49:26.809Z,58.53
2023-02-22T00:51:53.071Z,58.19
2023-02-22T00:54:19.465Z,58.37
2023-02-22T00:56:45.764Z,58.05
2023-02-22T00:59:12.190Z,58.05
2023-02-22T01:01:39.050Z,58.11
2023-02-22T01:04:05.549Z,58.01
2023-02-22T01:06:32.070Z,58.38
2023-02-22T01:08:58.443Z,58.04
2023-02-22T01:11:24.993Z,58.31
2023-02-22T01:13:51.385Z,57.98
2023-02-22T01:16:17.756Z,57.80
2023-02-22T01:18:44.102Z,58.16
2023-02-22T01:21:10.603Z,58.19
2023-02-22T01:23:36.977Z,57.80
2023-02-22T01:26:03.343Z,58.02
2023-02-22T01:28:30.018Z,58.18
2023-02-22T01:30:56.992Z,58.27
2023-02-22T01:33:23.363Z,57.84
2023-02-22T01:35:50.903Z,57.93
2023-02-22T01:38:17.630Z,57.97
2023-02-22T01:40:43.975Z,58.07
2023-02-22T01:43:10.552Z,58.07
2023-02-22T01:45:36.932Z,58.13
2023-02-22T01:48:03.396Z,57.58
2023-02-22T01:50:31.139Z,58.03
2023-02-22T01:53:01.612Z,57.77
2023-02-22T01:55:29.900Z,57.71
2023-02-22T01:57:57.709Z,57.64
2023-02-22T02:00:24.043Z,57.91
2023-02-22T02:02:50.527Z,57.67
2023-02-22T02:05:21.275Z,57.64
2023-02-22T02:07:48.511Z,57.78
2023-02-22T02:10:16.050Z,57.72
2023-02-22T02:12:42.587Z,57.66
2023-02-22T02:15:09.042Z,57.57
2023-02-22T02:17:35.774Z,57.57
2023-02-22T02:20:02.428Z,57.79
2023-02-22T02:22:28.783Z,57.50
2023-02-22T02:24:55.158Z,57.75
2023-02-22T02:27:21.577Z,57.69
2023-02-22T02:29:48.134Z,57.61
2023-02-22T02:32:14.567Z,57.31
2023-02-22T02:34:41.140Z,57.85
2023-02-22T02:37:07.964Z,57.44
2023-02-22T02:39:34.819Z,57.51
2023-02-22T02:42:01.121Z,57.41
2023-02-22T02:44:27.731Z,57.41
2023-02-22T02:46:54.121Z,57.53
2023-02-22T02:49:20.461Z,57.51
2023-02-22T02:51:47.266Z,57.90
2023-02-22T02:54:13.974Z,57.36
2023-02-22T02:56:40.277Z,57.76
2023-02-22T02:59:07.526Z,57.85
2023-02-22T03:01:34.003Z,57.50
2023-02-22T03:04:00.871Z,57.85
2023-02-22T03:06:27.134Z,57.35
2023-02-22T03:08:53.534Z,57.30
2023-02-22T03:11:19.948Z,57.38
2023-02-22T03:13:46.438Z,57.77
2023-02-22T03:16:12.958Z,57.50
2023-02-22T03:18:39.379Z,57.40
2023-02-22T03:21:05.790Z,57.99
2023-02-22T03:23:32.127Z,57.77
2023-02-22T03:25:58.865Z,57.93
2023-02-22T03:28:25.270Z,57.55
2023-02-22T03:30:51.659Z,57.54
2023-02-22T03:33:18.121Z,57.74
2023-02-22T03:35:45.051Z,57.51
2023-02-22T03:38:11.899Z,57.45
2023-02-22T03:40:38.431Z,57.88
2023-02-22T03:43:05.220Z,57.46
2023-02-22T03:45:31.561Z,57.86
2023-02-22T03:47:57.919Z,57.47
2023-02-22T03:50:24.585Z,57.09
2023-02-22T03:52:51.100Z,57.75
2023-02-22T03:55:17.710Z,57.71
2023-02-22T03:57:44.934Z,57.79
2023-02-22T04:00:12.100Z,57.29
2023-02-22T04:02:38.822Z,57.50
2023-02-22T04:05:05.372Z,57.57
2023-02-22T04:07:32.079Z,57.66
2023-02-22T04:09:58.442Z,57.43
2023-02-22T04:12:25.092Z,57.67
2023-02-22T04:14:51.436Z,57.39
2023-02-22T04:17:17.886Z,57.35
2023-02-22T04:19:44.725Z,57.71
2023-02-22T04:22:11.025Z,58.09
2023-02-22T04:24:37.657Z,57.52
2023-02-22T04:27:03.980Z,57.34
2023-02-22T04:29:30.375Z,57.50
2023-02-22T04:31:57.088Z,57.57
2023-02-22T04:34:23.657Z,57.29
2023-02-22T04:36:50.155Z,57.33
2023-02-22T04:39:16.667Z,57.66
2023-02-22T04:41:43.070Z,57.44
2023-02-22T04:44:09.658Z,57.63
2023-02-22T04:46:36.283Z,57.51
2023-02-22T04:49:02.749Z,57.42
2023-02-22T04:51:29.692Z,57.69
2023-02-22T04:53:56.022Z,57.63
2023-02-22T04:56:22.948Z,57.48
2023-02-22T04:58:49.382Z,57.66
2023-02-22T05:01:16.249Z,57.36
2023-02-22T05:03:42.985Z,57.72
2023-02-22T05:06:09.386Z,57.37
2023-02-22T05:08:35.867Z,57.48
2023-02-22T05:11:02.211Z,57.45
2023-02-22T05:13:28.604Z,57.75
2023-02-22T05:15:55.403Z,57.45
2023-02-22T05:18:22.038Z,57.67
2023-02-22T05:20:48.610Z,57.25
2023-02-22T05:23:14.943Z,57.74
2023-02-22T05:25:41.345Z,57.24
2023-02-22T05:28:08.108Z,57.56
2023-02-22T05:30:34.567Z,57.41
2023-02-22T05:33:01.021Z,57.49
2023-02-22T05:35:27.366Z,57.56
2023-02-22T05:37:54.028Z,57.42
2023-02-22T05:40:20.412Z,57.59
2023-02-22T05:42:48.886Z,57.39
2023-02-22T05:45:15.294Z,57.33
2023-02-22T05:47:41.634Z,57.45
2023-02-22T05:50:08.005Z,57.67
2023-02-22T05:52:34.438Z,57.62
2023-02-22T05:55:00.897Z,57.80
2023-02-22T05:57:27.806Z,57.63
2023-02-22T05:59:54.274Z,57.62
2023-02-22T06:02:20.607Z,57.47
2023-02-22T06:04:47.064Z,57.46
2023-02-22T06:07:13.440Z,57.71
2023-02-22T06:09:39.806Z,57.60
2023-02-22T06:12:06.312Z,57.60
2023-02-22T06:14:32.802Z,57.91
2023-02-22T06:16:59.124Z,57.61
2023-02-22T06:19:25.747Z,57.53
2023-02-22T06:21:52.260Z,57.85
2023-02-22T06:24:18.951Z,57.73
2023-02-22T06:26:45.553Z,57.64
2023-02-22T06:29:11.897Z,57.85
2023-02-22T06:31:38.543Z,57.47
2023-02-22T06:34:04.943Z,57.79
2023-02-22T06:36:31.446Z,57.51
2023-02-22T06:38:58.045Z,57.59
2023-02-22T06:41:24.432Z,57.54
2023-02-22T06:43:50.803Z,57.82
2023-02-22T06:46:17.177Z,56.86
2023-02-22T06:48:43.535Z,54.83
2023-02-22T06:51:10.243Z,57.31
2023-02-22T06:53:37.061Z,56.42
2023-02-22T06:56:03.435Z,56.18
2023-02-22T06:58:29.885Z,55.75
2023-02-22T07:00:56.270Z,55.86
2023-02-22T07:03:22.848Z,55.83
2023-02-22T07:05:49.546Z,56.04
2023-02-22T07:08:16.307Z,56.25
2023-02-22T07:10:42.889Z,55.93
2023-02-22T07:13:09.232Z,56.37
2023-02-22T07:15:35.868Z,56.36
2023-02-22T07:18:02.998Z,56.46
2023-02-22T07:20:29.561Z,56.55
2023-02-22T07:22:56.254Z,56.62
2023-02-22T07:25:22.659Z,56.66
2023-02-22T07:27:49.074Z,56.67
2023-02-22T07:30:15.828Z,56.69
2023-02-22T07:32:42.907Z,56.14
2023-02-22T07:35:09.682Z,56.37
2023-02-22T07:37:36.481Z,56.98
2023-02-22T07:40:03.196Z,56.67
2023-02-22T07:42:29.965Z,56.61
2023-02-22T07:44:56.334Z,56.80
2023-02-22T07:47:22.809Z,57.00
2023-02-22T07:49:49.516Z,56.64
2023-02-22T07:52:16.720Z,56.55
2023-02-22T07:54:43.088Z,56.63
2023-02-22T07:57:09.712Z,56.58
2023-02-22T07:59:36.054Z,56.90
2023-02-22T08:02:02.432Z,56.53
2023-02-22T08:04:28.872Z,56.64
2023-02-22T08:06:55.235Z,56.54
2023-02-22T08:09:21.995Z,56.75
2023-02-22T08:11:49.065Z,56.65
2023-02-22T08:14:15.534Z,56.72
2023-02-22T08:16:41.998Z,56.40
2023-02-22T08:19:09.025Z,57.04
2023-02-22T08:21:35.357Z,57.21
2023-02-22T08:24:01.760Z,56.68
2023-02-22T08:26:28.419Z,56.99
2023-02-22T08:28:55.135Z,56.63
2023-02-22T08:31:21.809Z,56.85
2023-02-22T08:33:49.026Z,56.98
2023-02-22T08:36:15.401Z,56.80
2023-02-22T08:38:41.775Z,57.48
2023-02-22T08:41:08.372Z,56.98
2023-02-22T08:43:35.371Z,56.92
2023-02-22T08:46:02.043Z,57.13
2023-02-22T08:48:28.483Z,57.30
2023-02-22T08:50:55.083Z,57.04
2023-02-22T08:53:21.774Z,57.32
2023-02-22T08:55:48.770Z,56.95
2023-02-22T08:58:15.178Z,56.96
2023-02-22T09:00:41.513Z,57.19
2023-02-22T09:03:08.093Z,56.94
2023-02-22T09:05:34.477Z,57.23
2023-02-22T09:08:00.835Z,57.42
2023-02-22T09:10:27.290Z,57.41
2023-02-22T09:12:54.351Z,57.27
2023-02-22T09:15:20.843Z,57.14
2023-02-22T09:17:47.165Z,57.25
2023-02-22T09:20:13.495Z,57.24
2023-02-22T09:22:39.836Z,57.46
2023-02-22T09:25:16.409Z,57.45
2023-02-22T09:27:43.539Z,57.12
2023-02-22T09:30:10.117Z,57.31
2023-02-22T09:32:37.421Z,57.31
2023-02-22T09:35:04.208Z,57.20
2023-02-22T09:37:30.864Z,57.57
2023-02-22T09:39:57.615Z,57.55
2023-02-22T09:42:24.055Z,57.31
2023-02-22T09:44:50.524Z,57.65
2023-02-22T09:47:17.605Z,57.19
2023-02-22T09:49:44.051Z,57.40
2023-02-22T09:52:10.383Z,57.79
2023-02-22T09:54:37.289Z,57.73
2023-02-22T09:57:03.954Z,57.64
2023-02-22T09:59:30.365Z,57.52
2023-02-22T10:01:56.699Z,57.68
2023-02-22T10:04:23.182Z,57.35
2023-02-22T10:06:49.622Z,57.82
2023-02-22T10:09:16.011Z,57.76
2023-02-22T10:11:42.399Z,57.83
2023-02-22T10:14:08.680Z,57.72
2023-02-22T10:16:35.630Z,57.46
2023-02-22T10:19:02.061Z,57.61
2023-02-22T10:21:28.769Z,57.69
2023-02-22T10:23:55.137Z,57.65
2023-02-22T10:26:21.506Z,57.66
2023-02-22T10:28:48.102Z,57.51
2023-02-22T10:31:14.945Z,57.43
2023-02-22T10:33:41.362Z,57.68
2023-02-22T10:36:07.819Z,57.50
2023-02-22T10:38:34.145Z,57.75
2023-02-22T10:41:00.535Z,58.01
2023-02-22T10:43:27.144Z,57.56
2023-02-22T10:45:53.516Z,57.77
2023-02-22T10:48:20.021Z,57.76
2023-02-22T10:50:46.631Z,57.92
2023-02-22T10:53:13.238Z,58.04
2023-02-22T10:55:39.684Z,57.96
2023-02-22T10:58:06.614Z,57.76
2023-02-22T11:00:33.029Z,57.92
2023-02-22T11:02:59.356Z,57.58
2023-02-22T11:05:25.709Z,57.89
2023-02-22T11:07:52.049Z,57.76
2023-02-22T11:10:18.408Z,58.01
2023-02-22T11:12:45.012Z,57.60
2023-02-22T11:15:12.110Z,58.09
2023-02-22T11:17:38.488Z,57.98
2023-02-22T11:20:04.987Z,58.02
2023-02-22T11:22:31.584Z,57.90
2023-02-22T11:24:57.953Z,58.04
2023-02-22T11:27:24.331Z,57.92
2023-02-22T11:29:50.631Z,57.99
2023-02-22T11:32:17.347Z,58.18
2023-02-22T11:34:44.258Z,58.02
2023-02-22T11:37:10.952Z,58.08
2023-02-22T11:39:37.296Z,57.69
2023-02-22T11:42:03.869Z,57.93
2023-02-22T11:44:30.355Z,58.33
2023-02-22T11:46:56.889Z,58.19
2023-02-22T11:49:23.678Z,58.19
2023-02-22T11:51:50.335Z,58.02
2023-02-22T11:54:16.681Z,57.87
2023-02-22T11:56:43.560Z,57.60
2023-02-22T11:59:10.051Z,57.98
2023-02-22T12:01:36.419Z,58.08
2023-02-22T12:04:02.920Z,57.83
2023-02-22T12:06:29.396Z,57.92
2023-02-22T12:08:55.756Z,58.05
2023-02-22T12:11:22.199Z,58.02
2023-02-22T12:13:48.526Z,58.32
2023-02-22T12:16:15.443Z,57.96
2023-02-22T12:18:42.133Z,58.06
2023-02-22T12:21:08.622Z,57.94
2023-02-22T12:23:35.043Z,58.06
2023-02-22T12:26:01.510Z,58.28
2023-02-22T12:28:28.044Z,58.06
2023-02-22T12:30:54.562Z,58.20
2023-02-22T12:33:20.949Z,58.15
2023-02-22T12:35:47.240Z,58.03
2023-02-22T12:38:13.618Z,58.37
2023-02-22T12:40:39.968Z,58.36
2023-02-22T12:43:06.351Z,58.60
2023-02-22T12:45:32.794Z,58.68
2023-02-22T12:47:59.417Z,58.81
2023-02-22T12:50:25.739Z,58.56
2023-02-22T12:52:52.397Z,58.59
2023-02-22T12:55:18.825Z,58.79
2023-02-22T12:57:45.164Z,58.49
2023-02-22T13:00:11.517Z,58.45
2023-02-22T13:02:37.939Z,58.17
2023-02-22T13:05:04.290Z,58.46
2023-02-22T13:07:30.615Z,58.32
2023-02-22T13:09:57.335Z,58.63
2023-02-22T13:12:23.921Z,58.29
2023-02-22T13:14:50.502Z,58.69
2023-02-22T13:17:17.035Z,58.76
2023-02-22T13:19:43.441Z,58.90
2023-02-22T13:22:09.920Z,58.67
2023-02-22T13:24:36.231Z,58.72
2023-02-22T13:27:02.693Z,59.09
2023-02-22T13:29:29.406Z,58.82
2023-02-22T13:31:55.992Z,59.23
2023-02-22T13:34:22.758Z,58.89
2023-02-22T13:36:49.610Z,58.93
2023-02-22T13:39:16.057Z,58.79
2023-02-22T13:41:42.461Z,58.87
2023-02-22T13:44:09.436Z,58.77
2023-02-22T13:46:35.982Z,59.03
2023-02-22T13:49:02.316Z,58.83
2023-02-22T13:51:29.046Z,58.61
2023-02-22T13:53:55.394Z,58.59
2023-02-22T13:56:22.106Z,58.84
2023-02-22T13:58:48.649Z,58.71
2023-02-22T14:01:15.086Z,58.86
2023-02-22T14:03:41.524Z,58.77
2023-02-22T14:06:07.903Z,59.05
2023-02-22T14:08:34.289Z,58.82
2023-02-22T14:11:01.025Z,58.79
2023-02-22T14:13:27.532Z,58.72
2023-02-22T14:15:53.933Z,58.76
2023-02-22T14:18:20.306Z,58.58
2023-02-22T14:20:47.847Z,58.69
2023-02-22T14:23:14.885Z,58.79
2023-02-22T14:25:41.453Z,58.38
2023-02-22T14:28:08.279Z,58.43
2023-02-22T14:30:34.598Z,58.40
2023-02-22T14:33:01.533Z,58.86
2023-02-22T14:35:33.319Z,58.48
2023-02-22T14:38:07.688Z,58.54
2023-02-22T14:40:34.073Z,58.66
2023-02-22T14:43:00.717Z,58.72
2023-02-22T14:45:29.848Z,58.85
2023-02-22T14:47:56.964Z,58.43
2023-02-22T14:50:23.263Z,58.22
2023-02-22T14:52:49.622Z,58.54
2023-02-22T14:55:16.422Z,58.63
2023-02-22T14:57:42.870Z,58.69
2023-02-22T15:00:09.182Z,58.29
2023-02-22T15:02:35.951Z,58.23
2023-02-22T15:05:02.460Z,58.51
2023-02-22T15:07:28.805Z,58.26
2023-02-22T15:09:55.789Z,58.57
2023-02-22T15:12:22.243Z,58.38
2023-02-22T15:14:48.869Z,58.66
2023-02-22T15:17:15.299Z,58.67
2023-02-22T15:19:41.862Z,58.91
2023-02-22T15:22:08.263Z,58.83
2023-02-22T15:24:34.978Z,58.60
2023-02-22T15:27:03.495Z,58.23
2023-02-22T15:29:31.428Z,58.15
2023-02-22T15:31:57.808Z,57.71
2023-02-22T15:34:24.160Z,58.17
2023-02-22T15:36:50.453Z,57.86
2023-02-22T15:39:16.826Z,57.49
2023-02-22T15:41:43.109Z,57.61
2023-02-22T15:44:22.717Z,57.37
2023-02-22T15:46:50.161Z,57.01
2023-02-22T15:49:16.530Z,57.22
2023-02-22T15:51:42.942Z,57.12
2023-02-22T15:54:13.258Z,57.12
2023-02-22T15:56:47.996Z,56.77
2023-02-22T15:59:14.933Z,57.07
2023-02-22T16:01:42.708Z,56.62
2023-02-22T16:04:09.620Z,56.78
2023-02-22T16:06:36.110Z,56.78
2023-02-22T16:09:02.482Z,56.98
2023-02-22T16:11:29.346Z,56.76
2023-02-22T16:13:55.733Z,56.77
2023-02-22T16:16:22.376Z,56.93
2023-02-22T16:18:48.714Z,57.02
2023-02-22T16:21:15.351Z,56.95
2023-02-22T16:23:42.217Z,56.89
2023-02-22T16:26:09.394Z,56.78
2023-02-22T16:28:35.703Z,56.96
2023-02-22T16:31:02.358Z,56.66
2023-02-22T16:33:28.783Z,56.94
2023-02-22T16:35:55.555Z,56.88
2023-02-22T16:38:21.931Z,57.05
2023-02-22T16:40:48.311Z,56.91
2023-02-22T16:43:14.853Z,57.23
2023-02-22T16:45:42.553Z,57.19
2023-02-22T16:48:09.022Z,57.12
2023-02-22T16:50:35.410Z,56.90
2023-02-22T16:53:01.740Z,56.97
2023-02-22T16:55:28.254Z,56.82
2023-02-22T16:57:54.642Z,57.04
2023-02-22T17:00:21.155Z,57.09
2023-02-22T17:02:48.034Z,57.49
2023-02-22T17:05:14.570Z,57.42
2023-02-22T17:07:40.900Z,57.24
2023-02-22T17:10:07.232Z,57.15
2023-02-22T17:12:33.733Z,57.26
2023-02-22T17:15:00.146Z,57.48
2023-02-22T17:17:27.087Z,57.31
2023-02-22T17:19:53.381Z,57.39
2023-02-22T17:22:19.721Z,57.65
2023-02-22T17:24:46.067Z,57.67
2023-02-22T17:27:12.457Z,57.73
2023-02-22T17:29:38.889Z,57.44
2023-02-22T17:32:05.374Z,57.47
2023-02-22T17:34:31.774Z,57.69
2023-02-22T17:36:58.309Z,57.83
2023-02-22T17:39:24.719Z,57.84
2023-02-22T17:41:53.380Z,57.83
2023-02-22T17:44:20.943Z,57.66
2023-02-22T17:46:47.462Z,57.73
2023-02-22T17:49:13.882Z,57.48
2023-02-22T17:51:40.336Z,57.75
2023-02-22T17:54:07.448Z,57.79
2023-02-22T17:56:34.598Z,57.73
2023-02-22T17:59:01.047Z,57.59
2023-02-22T18:01:27.390Z,57.65
2023-02-22T18:03:53.959Z,57.96
2023-02-22T18:06:23.315Z,57.54
2023-02-22T18:08:51.238Z,57.88
2023-02-22T18:11:17.923Z,57.74
2023-02-22T18:13:44.457Z,57.42
2023-02-22T18:16:11.149Z,57.99
2023-02-22T18:18:37.563Z,57.88
2023-02-22T18:21:03.896Z,57.74
2023-02-22T18:23:30.223Z,57.64
2023-02-22T18:26:09.690Z,57.78
2023-02-22T18:28:37.844Z,57.83
2023-02-22T18:31:04.390Z,57.57
2023-02-22T18:33:31.950Z,57.71
2023-02-22T18:35:58.485Z,57.63
2023-02-22T18:38:24.857Z,57.56
2023-02-22T18:40:51.260Z,57.77
2023-02-22T18:43:17.890Z,57.70
2023-02-22T18:45:44.227Z,57.68
2023-02-22T18:48:10.585Z,57.71
2023-02-22T18:50:36.925Z,57.67
2023-02-22T18:53:03.612Z,57.69
2023-02-22T18:55:30.087Z,57.49
2023-02-22T18:57:56.524Z,57.37
2023-02-22T19:00:23.464Z,56.91
2023-02-22T19:02:49.787Z,57.13
2023-02-22T19:05:16.479Z,56.74
2023-02-22T19:07:42.773Z,57.03
2023-02-22T19:10:09.178Z,56.99
2023-02-22T19:12:35.936Z,56.90
2023-02-22T19:15:02.549Z,56.71
2023-02-22T19:17:28.982Z,56.83
2023-02-22T19:19:55.300Z,56.66
2023-02-22T19:22:21.742Z,56.90
2023-02-22T19:24:48.311Z,56.48
2023-02-22T19:27:14.774Z,56.83
2023-02-22T19:29:41.139Z,56.84
2023-02-22T19:32:07.534Z,56.45
2023-02-22T19:34:34.048Z,56.66
2023-02-22T19:37:00.805Z,56.65
2023-02-22T19:39:27.303Z,56.40
2023-02-22T19:41:54.208Z,56.48
2023-02-22T19:44:20.715Z,56.65
2023-02-22T19:46:47.741Z,56.26
2023-02-22T19:49:14.090Z,56.33
2023-02-22T19:51:40.457Z,56.48
2023-02-22T19:54:07.348Z,56.62
2023-02-22T19:56:33.709Z,56.19
2023-02-22T19:59:00.168Z,56.39
2023-02-22T20:01:27.093Z,56.41
2023-02-22T20:03:53.522Z,56.47
2023-02-22T20:06:19.937Z,56.58
2023-02-22T20:08:46.314Z,56.34
2023-02-22T20:11:12.707Z,56.38
2023-02-22T20:13:39.254Z,56.08
2023-02-22T20:16:05.646Z,56.52
2023-02-22T20:18:31.977Z,56.44
2023-02-22T20:20:58.613Z,56.08
2023-02-22T20:23:25.000Z,56.40
2023-02-22T20:25:51.360Z,56.32
2023-02-22T20:28:18.192Z,56.48
2023-02-22T20:30:44.615Z,56.37
2023-02-22T20:33:11.166Z,56.21
2023-02-22T20:35:38.013Z,56.09
2023-02-22T20:38:04.770Z,56.22
2023-02-22T20:40:31.406Z,56.21
2023-02-22T20:42:57.836Z,56.18
2023-02-22T20:45:24.322Z,55.97
2023-02-22T20:47:51.107Z,56.10
2023-02-22T20:50:17.453Z,56.20
2023-02-22T20:52:44.238Z,56.17
2023-02-22T20:55:11.796Z,55.75
2023-02-22T20:57:38.462Z,56.00
2023-02-22T21:00:04.977Z,55.74
2023-02-22T21:02:31.232Z,56.06
2023-02-22T21:04:58.146Z,56.11
2023-02-22T21:07:24.715Z,56.11
2023-02-22T21:09:51.110Z,55.94
2023-02-22T21:12:17.400Z,56.08
2023-02-22T21:14:43.850Z,56.23
2023-02-22T21:17:11.120Z,56.10
2023-02-22T21:19:37.602Z,55.90
2023-02-22T21:22:04.074Z,55.64
2023-02-22T21:24:30.654Z,55.75
2023-02-22T21:26:57.139Z,55.72
2023-02-22T21:29:23.535Z,55.85
2023-02-22T21:31:50.046Z,55.96
2023-02-22T21:34:16.507Z,55.70
2023-02-22T21:36:43.422Z,55.82
2023-02-22T21:39:09.771Z,55.74
2023-02-22T21:41:36.098Z,55.69
2023-02-22T21:44:02.841Z,56.08
2023-02-22T21:46:29.662Z,55.53
2023-02-22T21:48:56.105Z,55.43
2023-02-22T21:51:22.503Z,55.59
2023-02-22T21:53:48.880Z,55.41
2023-02-22T21:56:15.479Z,55.85
2023-02-22T21:58:42.001Z,55.84
2023-02-22T22:01:08.453Z,55.69
2023-02-22T22:03:34.816Z,55.61
2023-02-22T22:06:01.233Z,55.88
2023-02-22T22:08:27.578Z,55.62
2023-02-22T22:10:53.902Z,55.73
2023-02-22T22:13:20.197Z,55.62
2023-02-22T22:15:46.711Z,55.97
2023-02-22T22:18:13.034Z,55.76
2023-02-22T22:20:40.266Z,55.82
2023-02-22T22:23:06.816Z,55.80
2023-02-22T22:25:33.157Z,55.80
2023-02-22T22:27:59.756Z,55.74
2023-02-22T22:30:26.362Z,55.76
2023-02-22T22:32:52.725Z,55.50
2023-02-22T22:35:19.360Z,55.46
2023-02-22T22:37:45.780Z,55.66
2023-02-22T22:40:12.405Z,55.79
2023-02-22T22:42:39.142Z,55.29
2023-02-22T22:45:05.563Z,55.55
2023-02-22T22:47:31.951Z,55.51
2023-02-22T22:49:58.257Z,55.49
2023-02-22T22:52:25.070Z,55.68
2023-02-22T22:54:51.371Z,55.75
2023-02-22T22:57:18.149Z,55.61
2023-02-22T22:59:44.522Z,55.47
2023-02-22T23:02:10.859Z,55.47
2023-02-22T23:04:37.449Z,55.43
2023-02-22T23:07:03.890Z,55.44
2023-02-22T23:09:30.238Z,55.46
2023-02-22T23:11:56.676Z,55.51
2023-02-22T23:14:23.565Z,55.64
2023-02-22T23:16:50.386Z,55.69
2023-02-22T23:19:16.940Z,55.52
2023-02-22T23:21:43.257Z,55.28
2023-02-22T23:24:09.586Z,55.22
2023-02-22T23:26:36.232Z,55.31
2023-02-22T23:29:02.533Z,55.53
2023-02-22T23:31:28.858Z,55.63
2023-02-22T23:33:55.414Z,55.22
2023-02-22T23:36:21.812Z,55.48
2023-02-22T23:38:48.178Z,55.53
2023-02-22T23:41:14.939Z,55.26
2023-02-22T23:43:41.254Z,55.37
2023-02-22T23:46:07.836Z,55.29
2023-02-22T23:48:34.207Z,55.08
2023-02-22T23:51:00.547Z,55.15
2023-02-22T23:53:27.371Z,54.77
2023-02-22T23:55:53.926Z,55.15
2023-02-22T23:58:20.395Z,55.22
